createdAt,value
2018-11-22T00:01:35.871Z,59.30
2018-11-22T00:04:16.072Z,63.73
2018-11-22T00:06:55.598Z,56.23
2018-11-22T00:09:35.388Z,59.70
2018-11-22T00:12:15.633Z,58.17
2018-11-22T00:14:55.734Z,64.00
2018-11-22T00:17:36.437Z,60.90
2018-11-22T00:20:17.022Z,56.97
2018-11-22T00:22:57.497Z,54.33
2018-11-22T00:25:37.160Z,63.53
2018-11-22T00:28:17.135Z,56.53
2018-11-22T00:30:56.837Z,59.67
2018-11-22T00:33:36.601Z,55.17
2018-11-22T00:36:16.485Z,51.57
2018-11-22T00:38:56.734Z,56.40
2018-11-22T00:41:36.569Z,61.20
2018-11-22T00:44:16.370Z,54.63
2018-11-22T00:46:56.577Z,51.97
2018-11-22T00:49:36.499Z,46.77
2018-11-22T00:52:16.269Z,51.77
2018-11-22T00:54:56.775Z,55.87
2018-11-22T00:57:37.331Z,49.00
2018-11-22T01:00:28.192Z,49.90
2018-11-22T01:03:07.809Z,55.00
2018-11-22T01:05:47.990Z,50.20
2018-11-22T01:08:27.742Z,55.90
2018-11-22T01:11:08.270Z,51.10
2018-11-22T01:13:48.111Z,49.07
2018-11-22T01:16:27.878Z,46.57
2018-11-22T01:19:07.755Z,47.13
2018-11-22T01:21:47.629Z,47.83
2018-11-22T01:24:27.495Z,52.63
2018-11-22T01:27:07.610Z,52.40
2018-11-22T01:29:47.392Z,56.30
2018-11-22T01:32:27.352Z,55.37
2018-11-22T01:35:07.131Z,59.03
2018-11-22T01:37:46.928Z,56.10
2018-11-22T01:40:27.183Z,56.90
2018-11-22T01:43:06.882Z,51.83
2018-11-22T01:45:46.973Z,54.33
2018-11-22T01:48:27.631Z,43.83
2018-11-22T01:51:07.500Z,53.10
2018-11-22T01:53:47.347Z,52.27
2018-11-22T01:56:27.048Z,40.93
2018-11-22T01:59:07.408Z,43.33
2018-11-22T02:01:47.185Z,50.57
2018-11-22T02:04:26.809Z,49.27
2018-11-22T02:07:07.459Z,46.63
2018-11-22T02:09:47.479Z,48.17
2018-11-22T02:12:28.044Z,46.17
2018-11-22T02:15:09.005Z,49.13
2018-11-22T02:17:48.904Z,39.50
2018-11-22T02:20:29.502Z,44.73
2018-11-22T02:23:09.887Z,45.00
2018-11-22T02:25:49.480Z,41.47
2018-11-22T02:28:30.087Z,45.87
2018-11-22T02:31:10.639Z,51.03
2018-11-22T02:33:50.459Z,47.53
2018-11-22T02:36:31.003Z,49.30
2018-11-22T02:39:11.929Z,40.10
2018-11-22T02:41:51.762Z,49.53
2018-11-22T02:44:31.717Z,45.87
2018-11-22T02:47:12.001Z,46.83
2018-11-22T02:49:52.483Z,47.90
2018-11-22T02:52:33.011Z,40.70
2018-11-22T02:55:12.859Z,41.53
2018-11-22T02:57:52.752Z,43.33
2018-11-22T03:00:37.597Z,45.53
2018-11-22T03:03:17.565Z,41.80
2018-11-22T03:05:58.258Z,47.23
2018-11-22T03:08:38.619Z,46.67
2018-11-22T03:11:19.044Z,40.73
2018-11-22T03:13:59.716Z,40.83
2018-11-22T03:16:39.354Z,47.97
2018-11-22T03:19:20.186Z,38.70
2018-11-22T03:21:59.778Z,44.27
2018-11-22T03:24:39.430Z,45.97
2018-11-22T03:27:19.773Z,38.90
2018-11-22T03:29:59.486Z,44.87
2018-11-22T03:32:39.286Z,38.07
2018-11-22T03:35:23.559Z,40.30
2018-11-22T03:38:03.993Z,34.60
2018-11-22T03:40:43.864Z,33.27
2018-11-22T03:43:23.901Z,36.40
2018-11-22T03:46:04.105Z,38.37
2018-11-22T03:48:44.789Z,39.60
2018-11-22T03:51:24.663Z,36.17
2018-11-22T03:54:04.431Z,33.00
2018-11-22T03:56:44.948Z,34.97
2018-11-22T03:59:24.836Z,39.03
2018-11-22T04:02:04.473Z,38.97
2018-11-22T04:04:44.181Z,34.63
2018-11-22T04:07:24.453Z,42.70
2018-11-22T04:10:05.102Z,37.10
2018-11-22T04:12:45.927Z,35.53
2018-11-22T04:15:26.508Z,34.87
2018-11-22T04:18:06.874Z,38.70
2018-11-22T04:20:47.398Z,35.70
2018-11-22T04:23:27.262Z,37.83
2018-11-22T04:26:07.701Z,40.43
2018-11-22T04:28:47.564Z,32.23
2018-11-22T04:31:27.225Z,43.30
2018-11-22T04:34:07.159Z,44.27
2018-11-22T04:36:46.828Z,41.27
2018-11-22T04:39:27.181Z,44.90
2018-11-22T04:42:07.288Z,40.90
2018-11-22T04:44:47.459Z,40.17
2018-11-22T04:47:26.895Z,43.83
2018-11-22T04:50:06.839Z,46.60
2018-11-22T04:52:46.674Z,43.50
2018-11-22T04:55:26.309Z,38.13
2018-11-22T04:58:06.974Z,36.23
2018-11-22T05:00:47.421Z,38.43
2018-11-22T05:03:27.978Z,39.87
2018-11-22T05:06:08.594Z,46.67
2018-11-22T05:08:48.189Z,45.43
2018-11-22T05:11:28.050Z,42.43
2018-11-22T05:14:07.821Z,44.53
2018-11-22T05:16:48.601Z,43.50
2018-11-22T05:19:29.123Z,48.23
2018-11-22T05:22:09.445Z,45.67
2018-11-22T05:24:49.179Z,49.90
2018-11-22T05:27:30.054Z,43.23
2018-11-22T05:30:10.399Z,47.17
2018-11-22T05:32:50.208Z,47.50
2018-11-22T05:35:30.028Z,44.70
2018-11-22T05:38:09.723Z,43.10
2018-11-22T05:40:49.459Z,39.77
2018-11-22T05:43:30.173Z,40.73
2018-11-22T05:46:10.005Z,37.27
2018-11-22T05:48:49.851Z,40.20
2018-11-22T05:51:30.172Z,35.03
2018-11-22T05:54:09.918Z,35.57
2018-11-22T05:56:50.310Z,37.40
2018-11-22T05:59:30.661Z,34.80
2018-11-22T06:02:10.496Z,31.10
2018-11-22T06:04:51.276Z,35.57
2018-11-22T06:07:30.874Z,30.83
2018-11-22T06:10:11.155Z,36.63
2018-11-22T06:12:52.154Z,35.97
2018-11-22T06:15:32.553Z,35.07
2018-11-22T06:18:14.145Z,39.90
2018-11-22T06:20:53.264Z,39.67
2018-11-22T06:23:33.023Z,34.90
2018-11-22T06:26:13.654Z,38.40
2018-11-22T06:28:54.030Z,38.37
2018-11-22T06:31:34.959Z,37.93
2018-11-22T06:34:15.073Z,40.70
2018-11-22T06:36:54.936Z,41.73
2018-11-22T06:39:36.945Z,45.67
2018-11-22T06:42:17.367Z,49.00
2018-11-22T06:44:57.740Z,42.77
2018-11-22T06:47:37.461Z,46.13
2018-11-22T06:50:18.394Z,46.87
2018-11-22T06:52:59.055Z,36.23
2018-11-22T06:55:38.813Z,47.67
2018-11-22T06:58:18.668Z,37.60
2018-11-22T07:00:58.735Z,37.93
2018-11-22T07:03:39.062Z,39.47
2018-11-22T07:06:19.733Z,37.27
2018-11-22T07:08:59.653Z,42.17
2018-11-22T07:11:39.596Z,36.27
2018-11-22T07:14:19.116Z,42.63
2018-11-22T07:16:59.696Z,39.30
2018-11-22T07:19:39.382Z,45.53
2018-11-22T07:22:20.134Z,44.87
2018-11-22T07:25:00.828Z,48.33
2018-11-22T07:27:41.523Z,38.73
2018-11-22T07:30:23.096Z,46.43
2018-11-22T07:33:03.746Z,48.20
2018-11-22T07:35:44.133Z,43.20
2018-11-22T07:38:24.066Z,50.43
2018-11-22T07:41:04.673Z,47.60
2018-11-22T07:43:45.254Z,44.50
2018-11-22T07:46:25.167Z,47.33
2018-11-22T07:49:05.320Z,48.30
2018-11-22T12:17:24.551Z,19.30
2018-11-22T12:19:55.363Z,35.50
2018-11-22T12:22:26.964Z,29.83
2018-11-22T12:24:57.874Z,35.40
2018-11-22T12:27:28.353Z,18.40
2018-11-22T12:29:59.188Z,15.93
2018-11-22T12:32:36.240Z,20.77
2018-11-22T12:35:14.248Z,19.50
2018-11-22T12:37:49.585Z,23.97
2018-11-22T12:40:21.106Z,35.60
2018-11-22T12:42:51.556Z,16.63
2018-11-22T12:45:37.745Z,14.80
2018-11-22T12:48:10.818Z,18.50
2018-11-22T12:50:45.330Z,16.67
2018-11-22T12:53:15.810Z,23.70
2018-11-22T12:55:46.262Z,24.07
2018-11-22T12:58:16.981Z,34.13
2018-11-22T13:00:47.524Z,32.90
2018-11-22T13:03:19.156Z,22.67
2018-11-22T13:05:49.983Z,18.40
2018-11-22T13:08:21.019Z,25.73
2018-11-22T13:10:54.240Z,19.50
2018-11-22T13:13:25.734Z,17.60
2018-11-22T13:15:56.310Z,23.50
2018-11-22T13:18:26.773Z,32.43
2018-11-22T13:20:57.353Z,31.30
2018-11-22T13:23:28.106Z,24.23
2018-11-22T13:25:58.999Z,15.97
2018-11-22T13:28:29.674Z,16.00
2018-11-22T13:31:01.214Z,13.10
2018-11-22T13:33:31.954Z,17.80
2018-11-22T13:36:03.069Z,16.43
2018-11-22T13:38:34.960Z,26.13
2018-11-22T13:41:06.609Z,17.50
2018-11-22T13:43:37.423Z,20.53
2018-11-22T13:46:09.370Z,17.70
2018-11-22T13:48:40.175Z,19.00
2018-11-22T13:51:15.329Z,22.43
2018-11-22T13:53:47.070Z,26.23
2018-11-22T13:56:17.485Z,25.77
2018-11-22T13:58:48.271Z,27.43
2018-11-22T14:01:19.459Z,21.47
2018-11-22T14:03:50.263Z,33.67
2018-11-22T14:06:21.343Z,20.70
2018-11-22T14:08:51.881Z,18.73
2018-11-22T14:11:22.302Z,21.50
2018-11-22T14:13:53.063Z,59.30
2018-11-22T14:16:23.664Z,32.60
2018-11-22T14:18:54.615Z,22.60
2018-11-22T14:21:25.037Z,18.47
2018-11-22T14:23:57.767Z,20.10
2018-11-22T14:26:28.286Z,45.10
2018-11-22T14:28:58.937Z,18.67
2018-11-22T14:31:29.574Z,19.87
2018-11-22T14:34:00.679Z,16.00
2018-11-22T14:36:32.172Z,39.90
2018-11-22T14:39:02.864Z,29.30
2018-11-22T14:41:33.302Z,19.83
2018-11-22T14:44:04.770Z,30.13
2018-11-22T14:46:35.770Z,25.70
2018-11-22T14:49:07.242Z,29.87
2018-11-22T14:51:43.474Z,24.77
2018-11-22T14:54:13.942Z,32.77
2018-11-22T14:56:45.843Z,31.00
2018-11-22T14:59:16.173Z,29.00
2018-11-22T15:01:46.752Z,29.47
2018-11-22T15:04:17.509Z,25.50
2018-11-22T15:06:48.460Z,25.53
2018-11-22T15:09:19.072Z,33.47
2018-11-22T15:11:49.633Z,26.50
2018-11-22T15:14:20.198Z,24.30
2018-11-22T15:16:51.358Z,22.83
2018-11-22T15:19:22.976Z,25.00
2018-11-22T15:21:53.727Z,26.20
2018-11-22T15:24:24.161Z,23.67
2018-11-22T15:26:54.626Z,31.47
2018-11-22T15:29:25.306Z,31.43
2018-11-22T15:31:55.322Z,26.00
2018-11-22T15:34:25.906Z,25.40
2018-11-22T15:36:57.175Z,28.00
2018-11-22T15:39:27.642Z,32.10
2018-11-22T15:41:58.097Z,29.27
2018-11-22T15:44:28.840Z,39.63
2018-11-22T15:46:59.408Z,39.63
2018-11-22T15:49:30.691Z,31.43
2018-11-22T15:52:02.167Z,34.47
2018-11-22T15:54:33.185Z,32.70
2018-11-22T15:57:04.095Z,33.30
2018-11-22T15:59:34.800Z,29.73
2018-11-22T16:02:06.117Z,32.00
2018-11-22T16:04:37.167Z,48.80
2018-11-22T16:07:08.366Z,34.80
2018-11-22T16:09:39.409Z,35.07
2018-11-22T16:12:10.354Z,36.60
2018-11-22T16:14:41.463Z,29.83
2018-11-22T16:17:12.278Z,34.80
2018-11-22T16:19:43.197Z,30.77
2018-11-22T16:22:15.715Z,35.20
2018-11-22T16:24:47.476Z,30.93
2018-11-22T16:27:18.196Z,38.57
2018-11-22T16:29:49.488Z,39.70
2018-11-22T16:32:20.496Z,38.17
2018-11-22T16:34:51.092Z,36.83
2018-11-22T16:37:22.730Z,41.20
2018-11-22T16:39:54.760Z,35.60
2018-11-22T16:42:27.284Z,41.17
2018-11-22T16:44:59.039Z,37.67
2018-11-22T16:47:29.690Z,39.40
2018-11-22T16:50:00.559Z,37.47
2018-11-22T16:52:32.233Z,37.40
2018-11-22T16:55:02.900Z,36.17
2018-11-22T16:57:33.392Z,37.83
2018-11-22T17:00:04.462Z,39.33
2018-11-22T17:02:35.946Z,38.77
2018-11-22T17:05:08.761Z,38.57
2018-11-22T17:07:40.290Z,39.03
2018-11-22T17:10:14.214Z,36.90
2018-11-22T17:12:47.265Z,44.63
2018-11-22T17:15:19.561Z,45.10
2018-11-22T17:17:50.953Z,43.70
2018-11-22T17:20:23.438Z,43.10
2018-11-22T17:22:54.437Z,41.60
2018-11-22T17:25:27.868Z,49.33
2018-11-22T17:28:03.715Z,40.77
2018-11-22T17:30:37.862Z,45.67
2018-11-22T17:33:08.579Z,42.87
2018-11-22T17:35:39.754Z,45.70
2018-11-22T17:38:11.502Z,36.10
2018-11-22T17:40:47.779Z,41.23
2018-11-22T17:43:19.152Z,39.27
2018-11-22T17:45:51.815Z,37.27
2018-11-22T17:48:22.552Z,38.57
2018-11-22T17:50:53.501Z,37.90
2018-11-22T17:53:24.045Z,43.90
2018-11-22T17:55:54.587Z,39.43
2018-11-22T17:58:26.374Z,38.03
2018-11-22T18:00:56.655Z,34.97
2018-11-22T18:03:27.540Z,36.40
2018-11-22T18:06:29.192Z,40.30
2018-11-22T18:09:00.647Z,35.00
2018-11-22T18:11:30.974Z,37.60
2018-11-22T18:14:01.696Z,39.97
2018-11-22T18:16:34.359Z,38.93
2018-11-22T18:19:06.560Z,38.40
2018-11-22T18:21:38.804Z,34.43
2018-11-22T18:24:40.269Z,47.13
2018-11-22T18:27:10.898Z,41.00
2018-11-22T18:29:41.475Z,47.23
2018-11-22T18:32:13.774Z,43.17
2018-11-22T18:34:44.864Z,37.53
2018-11-22T18:37:16.821Z,37.43
2018-11-22T18:39:47.665Z,39.30
2018-11-22T18:42:19.562Z,41.87
2018-11-22T18:44:50.894Z,44.70
2018-11-22T18:47:21.765Z,45.07
2018-11-22T18:49:52.864Z,39.87
2018-11-22T18:52:23.899Z,41.63
2018-11-22T18:54:55.276Z,39.53
2018-11-22T18:57:25.989Z,40.27
2018-11-22T18:59:57.658Z,44.90
2018-11-22T19:02:28.636Z,44.90
2018-11-22T19:05:01.216Z,38.03
2018-11-22T19:07:31.669Z,35.37
2018-11-22T19:10:02.229Z,36.27
2018-11-22T19:12:32.783Z,35.57
2018-11-22T19:15:03.351Z,43.30
2018-11-22T19:17:33.967Z,41.60
2018-11-22T19:20:09.181Z,35.07
2018-11-22T19:22:36.915Z,37.70
2018-11-22T19:25:08.036Z,48.17
2018-11-22T19:27:38.888Z,44.40
2018-11-22T19:30:12.223Z,41.40
2018-11-22T19:32:43.469Z,36.43
2018-11-22T19:35:15.144Z,39.53
2018-11-22T19:37:47.354Z,42.20
2018-11-22T19:40:24.581Z,44.57
2018-11-22T19:42:56.481Z,42.07
2018-11-22T19:45:28.768Z,41.43
2018-11-22T19:47:59.809Z,39.90
2018-11-22T19:50:30.907Z,48.83
2018-11-22T19:53:03.212Z,38.57
2018-11-22T19:55:35.190Z,40.63
2018-11-22T19:58:08.170Z,45.37
2018-11-22T20:00:40.141Z,35.97
2018-11-22T20:03:11.122Z,39.03
2018-11-22T20:05:42.292Z,43.60
2018-11-22T20:08:15.262Z,39.23
2018-11-22T20:10:48.132Z,38.60
2018-11-22T20:13:20.398Z,37.80
2018-11-22T20:15:51.132Z,43.50
2018-11-22T20:18:21.942Z,47.57
2018-11-22T20:20:53.283Z,43.37
2018-11-22T20:23:23.884Z,47.47
2018-11-22T20:25:55.390Z,59.83
2018-11-22T20:28:26.349Z,68.93
2018-11-22T20:30:57.217Z,92.20
2018-11-22T20:33:28.369Z,69.77
2018-11-22T20:36:00.705Z,70.33
2018-11-22T20:38:30.374Z,56.77
2018-11-22T20:41:01.314Z,65.97
2018-11-22T20:43:32.399Z,57.73
2018-11-22T20:46:03.761Z,49.43
2018-11-22T20:48:36.300Z,48.80
2018-11-22T20:51:07.260Z,49.93
2018-11-22T20:53:39.840Z,58.33
2018-11-22T20:56:12.540Z,52.97
2018-11-22T20:58:43.756Z,50.20
2018-11-22T21:01:14.410Z,51.70
2018-11-22T21:03:45.435Z,51.60
2018-11-22T21:06:15.850Z,58.77
2018-11-22T21:08:48.537Z,63.90
2018-11-22T21:11:18.629Z,53.87
2018-11-22T21:13:49.676Z,50.00
2018-11-22T21:16:21.826Z,63.80
2018-11-22T21:18:52.182Z,57.87
2018-11-22T21:21:22.733Z,49.20
2018-11-22T21:23:53.277Z,47.70
2018-11-22T21:26:24.046Z,45.73
2018-11-22T21:28:54.944Z,42.43
2018-11-22T21:31:25.881Z,47.80
2018-11-22T21:33:56.750Z,52.47
2018-11-22T21:36:27.339Z,48.93
2018-11-22T21:38:58.022Z,47.23
2018-11-22T21:41:28.541Z,49.13
2018-11-22T21:43:59.544Z,45.17
2018-11-22T21:46:33.519Z,41.47
2018-11-22T21:49:03.844Z,45.67
2018-11-22T21:51:39.370Z,49.90
2018-11-22T21:54:06.697Z,46.70
2018-11-22T21:56:38.106Z,49.63
2018-11-22T21:59:08.737Z,41.20
2018-11-22T22:01:40.068Z,41.53
2018-11-22T22:04:10.392Z,43.57
2018-11-22T22:06:41.829Z,46.20
2018-11-22T22:09:12.543Z,86.60
2018-11-22T22:11:42.995Z,66.83
2018-11-22T22:14:14.360Z,54.80
2018-11-22T22:16:45.774Z,55.53
2018-11-22T22:19:16.395Z,53.90
2018-11-22T22:21:46.937Z,47.97
2018-11-22T22:24:17.437Z,53.13
2018-11-22T22:26:48.044Z,46.50
2018-11-22T22:29:18.932Z,54.83
2018-11-22T22:31:49.574Z,60.53
2018-11-22T22:34:21.146Z,46.83
2018-11-22T22:36:51.755Z,46.87
2018-11-22T22:39:22.051Z,73.40
2018-11-22T22:41:52.591Z,60.23
2018-11-22T22:44:23.046Z,54.30
2018-11-22T22:46:53.692Z,51.63
2018-11-22T22:49:24.235Z,46.13
2018-11-22T22:51:54.809Z,68.43
2018-11-22T22:54:25.334Z,51.90
2018-11-22T22:56:55.876Z,45.67
2018-11-22T22:59:26.349Z,34.40
2018-11-22T23:01:57.470Z,40.73
2018-11-22T23:04:28.786Z,39.03
2018-11-22T23:06:59.199Z,34.63
2018-11-22T23:09:29.984Z,34.13
2018-11-22T23:12:00.544Z,31.37
2018-11-22T23:14:31.652Z,28.03
2018-11-22T23:17:02.261Z,30.27
2018-11-22T23:19:33.210Z,34.90
2018-11-22T23:22:04.516Z,41.77
2018-11-22T23:24:35.293Z,34.10
2018-11-22T23:27:05.780Z,32.20
2018-11-22T23:29:36.878Z,25.97
2018-11-22T23:32:08.003Z,35.10
2018-11-22T23:34:38.453Z,32.40
2018-11-22T23:37:09.120Z,35.43
2018-11-22T23:39:40.122Z,30.13
2018-11-22T23:42:10.934Z,27.20
2018-11-22T23:44:41.524Z,26.07
2018-11-22T23:47:12.209Z,27.20
2018-11-22T23:49:42.812Z,31.33
2018-11-22T23:52:13.752Z,24.40
2018-11-22T23:54:44.198Z,27.47
2018-11-22T23:57:14.721Z,24.90
2018-11-22T23:59:45.799Z,36.93
